createdAt,value
2022-07-29T00:01:22.160Z,18.40
2022-07-29T00:03:50.528Z,18.40
2022-07-29T00:06:19.104Z,18.40
2022-07-29T00:08:47.271Z,18.40
2022-07-29T00:11:15.572Z,18.30
2022-07-29T00:13:49.021Z,18.30
2022-07-29T00:16:20.400Z,18.30
2022-07-29T00:18:48.598Z,18.20
2022-07-29T00:21:16.800Z,18.20
2022-07-29T00:23:45.080Z,18.20
2022-07-29T00:26:13.249Z,18.20
2022-07-29T00:28:41.437Z,18.20
2022-07-29T00:31:10.200Z,18.10
2022-07-29T00:33:39.777Z,18.10
2022-07-29T00:36:07.182Z,18.00
2022-07-29T00:38:35.417Z,18.00
2022-07-29T00:41:03.575Z,18.00
2022-07-29T00:43:31.736Z,18.00
2022-07-29T00:45:59.946Z,18.00
2022-07-29T00:48:28.113Z,17.90
2022-07-29T00:50:59.486Z,18.00
2022-07-29T00:53:28.485Z,17.90
2022-07-29T00:55:56.827Z,17.80
2022-07-29T00:58:25.738Z,17.80
2022-07-29T01:00:54.141Z,17.80
2022-07-29T01:03:22.365Z,17.80
2022-07-29T01:05:51.944Z,17.80
2022-07-29T01:08:22.519Z,17.80
2022-07-29T01:10:53.113Z,17.80
2022-07-29T01:13:23.453Z,17.80
2022-07-29T01:15:58.913Z,17.70
2022-07-29T01:18:34.038Z,17.80
2022-07-29T01:21:52.249Z,17.70
2022-07-29T01:24:42.255Z,17.70
2022-07-29T01:27:26.622Z,17.70
2022-07-29T01:30:00.381Z,17.70
2022-07-29T01:32:31.190Z,17.70
2022-07-29T01:35:06.089Z,17.80
2022-07-29T01:37:41.500Z,17.80
2022-07-29T01:40:14.643Z,17.80
2022-07-29T01:42:47.005Z,17.80
2022-07-29T01:45:20.955Z,17.80
2022-07-29T01:47:56.464Z,17.80
2022-07-29T01:50:33.525Z,17.80
2022-07-29T01:53:04.315Z,17.80
2022-07-29T01:55:37.278Z,17.80
2022-07-29T01:58:07.819Z,17.80
2022-07-29T02:00:38.189Z,17.80
2022-07-29T02:03:11.443Z,17.80
2022-07-29T02:05:42.512Z,17.80
2022-07-29T02:08:12.159Z,17.80
2022-07-29T02:10:42.476Z,17.80
2022-07-29T02:13:13.435Z,17.80
2022-07-29T02:15:44.820Z,17.80
2022-07-29T02:18:17.563Z,17.80
2022-07-29T02:20:49.085Z,17.80
2022-07-29T02:23:21.194Z,17.70
2022-07-29T02:25:51.377Z,17.70
2022-07-29T02:28:22.476Z,17.70
2022-07-29T02:30:54.363Z,17.70
2022-07-29T02:33:24.531Z,17.70
2022-07-29T02:35:53.078Z,17.70
2022-07-29T02:38:41.931Z,17.70
2022-07-29T02:41:13.799Z,17.70
2022-07-29T02:43:45.391Z,17.80
2022-07-29T02:46:29.197Z,17.80
2022-07-29T02:49:04.459Z,17.80
2022-07-29T02:51:44.639Z,17.80
2022-07-29T02:54:21.316Z,17.80
2022-07-29T02:56:53.673Z,17.80
2022-07-29T02:59:27.129Z,17.80
2022-07-29T03:01:57.745Z,17.90
2022-07-29T03:04:29.686Z,17.90
2022-07-29T03:07:01.792Z,17.90
2022-07-29T03:09:31.581Z,17.90
2022-07-29T03:12:00.125Z,17.90
2022-07-29T03:14:29.184Z,17.80
2022-07-29T03:17:00.609Z,17.80
2022-07-29T03:19:29.153Z,17.90
2022-07-29T03:21:59.252Z,18.00
2022-07-29T03:24:32.358Z,18.00
2022-07-29T03:27:01.157Z,18.00
2022-07-29T03:29:33.585Z,18.10
2022-07-29T03:32:08.205Z,18.10
2022-07-29T03:34:38.854Z,18.10
2022-07-29T03:37:07.995Z,18.10
2022-07-29T03:39:41.904Z,18.10
2022-07-29T03:42:13.939Z,18.10
2022-07-29T03:44:44.022Z,18.00
2022-07-29T03:47:15.983Z,17.90
2022-07-29T03:49:45.201Z,17.90
2022-07-29T03:52:13.496Z,17.90
2022-07-29T03:54:42.215Z,17.90
2022-07-29T03:57:13.441Z,18.00
2022-07-29T03:59:42.289Z,18.00
2022-07-29T04:02:14.875Z,18.00
2022-07-29T04:04:44.763Z,17.90
2022-07-29T04:07:15.051Z,18.00
2022-07-29T04:09:43.702Z,18.00
2022-07-29T04:12:12.391Z,18.00
2022-07-29T04:14:40.563Z,18.10
2022-07-29T04:17:08.894Z,18.20
2022-07-29T04:19:38.423Z,18.20
2022-07-29T04:22:06.556Z,18.30
2022-07-29T04:24:34.722Z,18.30
2022-07-29T04:27:02.889Z,18.40
2022-07-29T04:29:31.037Z,18.40
2022-07-29T04:31:59.237Z,18.40
2022-07-29T04:34:28.023Z,18.50
2022-07-29T04:36:57.758Z,18.70
2022-07-29T04:39:25.933Z,18.80
2022-07-29T04:41:57.742Z,18.80
2022-07-29T04:44:28.962Z,18.80
2022-07-29T04:46:58.720Z,18.70
2022-07-29T04:49:27.255Z,18.60
2022-07-29T04:51:55.641Z,18.60
2022-07-29T04:54:25.626Z,18.60
2022-07-29T04:56:54.628Z,18.50
2022-07-29T04:59:22.854Z,18.60
2022-07-29T05:01:51.044Z,18.50
2022-07-29T05:04:19.907Z,18.50
2022-07-29T05:06:48.600Z,18.60
2022-07-29T05:09:16.836Z,18.60
2022-07-29T05:11:46.373Z,18.60
2022-07-29T05:14:14.972Z,18.70
2022-07-29T05:16:44.439Z,18.80
2022-07-29T05:19:14.550Z,18.90
2022-07-29T05:21:43.546Z,18.90
2022-07-29T05:24:11.764Z,19.00
2022-07-29T05:26:40.064Z,19.00
2022-07-29T05:29:44.993Z,19.00
2022-07-29T05:31:57.877Z,19.00
2022-07-29T05:34:26.161Z,19.10
2022-07-29T05:36:54.495Z,19.10
2022-07-29T05:39:22.759Z,19.20
2022-07-29T05:42:11.615Z,19.20
2022-07-29T05:44:41.953Z,19.30
2022-07-29T05:47:10.101Z,19.40
2022-07-29T05:49:38.302Z,19.40
2022-07-29T05:52:07.007Z,19.50
2022-07-29T05:54:35.182Z,19.60
2022-07-29T05:57:03.596Z,19.60
2022-07-29T05:59:31.824Z,19.70
2022-07-29T06:02:01.377Z,19.90
2022-07-29T06:04:29.697Z,20.00
2022-07-29T06:06:57.888Z,20.20
2022-07-29T06:09:27.042Z,20.20
2022-07-29T06:11:55.187Z,20.30
2022-07-29T06:14:23.397Z,20.40
2022-07-29T06:16:51.626Z,20.50
2022-07-29T06:19:21.263Z,20.50
2022-07-29T06:21:50.236Z,20.60
2022-07-29T06:24:19.055Z,20.60
2022-07-29T06:26:47.566Z,20.70
2022-07-29T06:29:15.853Z,20.80
2022-07-29T06:31:44.070Z,20.90
2022-07-29T06:34:12.432Z,21.00
2022-07-29T06:36:43.067Z,21.10
2022-07-29T06:39:11.712Z,21.10
2022-07-29T06:41:40.515Z,21.20
2022-07-29T06:44:08.707Z,21.30
2022-07-29T06:46:37.602Z,21.30
2022-07-29T06:49:06.601Z,21.50
2022-07-29T06:51:34.890Z,21.60
2022-07-29T06:54:06.477Z,21.60
2022-07-29T06:56:38.634Z,21.80
2022-07-29T06:59:09.592Z,22.00
2022-07-29T07:01:39.053Z,22.40
2022-07-29T07:04:09.504Z,22.70
2022-07-29T07:06:38.278Z,23.00
2022-07-29T07:09:08.458Z,23.00
2022-07-29T07:11:36.681Z,23.10
2022-07-29T07:14:04.930Z,23.30
2022-07-29T07:16:33.847Z,23.50
2022-07-29T07:19:02.359Z,23.80
2022-07-29T07:21:31.040Z,24.00
2022-07-29T07:23:59.815Z,23.90
2022-07-29T07:26:29.960Z,23.80
2022-07-29T07:28:58.148Z,23.90
2022-07-29T07:31:26.387Z,23.90
2022-07-29T07:33:55.426Z,23.90
2022-07-29T07:36:24.197Z,24.10
2022-07-29T07:38:52.361Z,24.20
2022-07-29T07:41:20.530Z,24.30
2022-07-29T07:43:50.340Z,24.20
2022-07-29T07:46:18.689Z,24.10
2022-07-29T07:48:46.934Z,24.30
2022-07-29T07:51:15.261Z,24.40
2022-07-29T07:53:43.439Z,24.50
2022-07-29T07:56:12.825Z,24.60
2022-07-29T07:58:41.603Z,24.60
2022-07-29T08:01:11.849Z,24.80
2022-07-29T08:03:40.357Z,25.00
2022-07-29T08:06:08.837Z,25.10
2022-07-29T08:08:37.080Z,25.30
2022-07-29T08:11:09.560Z,25.50
2022-07-29T08:13:38.821Z,26.10
2022-07-29T08:16:13.866Z,26.30
2022-07-29T08:18:44.907Z,26.30
2022-07-29T08:21:15.170Z,26.20
2022-07-29T08:23:54.548Z,26.10
2022-07-29T08:26:28.069Z,25.90
2022-07-29T08:28:56.405Z,26.20
2022-07-29T08:31:24.698Z,26.30
2022-07-29T08:33:54.344Z,26.30
2022-07-29T08:36:23.105Z,26.40
2022-07-29T08:38:52.090Z,26.60
2022-07-29T08:41:20.994Z,26.70
2022-07-29T08:43:49.502Z,26.90
2022-07-29T08:46:18.327Z,27.10
2022-07-29T08:48:47.445Z,27.90
2022-07-29T08:51:18.885Z,29.00
2022-07-29T08:53:49.328Z,28.90
2022-07-29T08:56:19.171Z,28.40
2022-07-29T08:58:49.874Z,29.00
2022-07-29T09:01:36.225Z,29.30
2022-07-29T09:04:13.905Z,29.50
2022-07-29T09:06:47.190Z,28.90
2022-07-29T09:09:15.943Z,28.60
2022-07-29T09:11:45.400Z,28.30
2022-07-29T09:14:15.272Z,29.00
2022-07-29T09:17:01.174Z,29.60
2022-07-29T09:19:31.692Z,30.00
2022-07-29T09:22:03.467Z,30.30
2022-07-29T09:24:46.261Z,30.80
2022-07-29T09:27:26.871Z,32.10
2022-07-29T09:30:00.014Z,31.60
2022-07-29T09:32:29.179Z,31.70
2022-07-29T09:35:22.324Z,32.20
2022-07-29T09:37:52.508Z,33.30
2022-07-29T09:40:22.028Z,35.20
2022-07-29T09:42:50.371Z,36.00
2022-07-29T09:45:30.404Z,37.50
2022-07-29T09:48:01.474Z,38.80
2022-07-29T09:50:40.212Z,39.90
2022-07-29T09:53:11.225Z,39.10
2022-07-29T09:55:50.803Z,38.70
2022-07-29T09:58:22.453Z,38.10
2022-07-29T10:00:52.232Z,38.00
2022-07-29T10:03:20.631Z,38.60
2022-07-29T10:06:05.815Z,36.90
2022-07-29T10:08:35.521Z,35.10
2022-07-29T10:11:14.179Z,34.90
2022-07-29T10:13:43.703Z,35.60
2022-07-29T10:16:14.068Z,36.00
2022-07-29T10:18:44.622Z,34.40
2022-07-29T10:21:22.527Z,34.40
2022-07-29T10:24:03.283Z,34.30
2022-07-29T10:26:32.412Z,32.50
2022-07-29T10:29:00.758Z,31.30
2022-07-29T10:31:38.211Z,30.90
2022-07-29T10:34:16.473Z,31.50
2022-07-29T10:36:56.876Z,34.30
2022-07-29T10:45:20.743Z,34.10
2022-07-29T10:47:49.062Z,31.80
2022-07-29T10:50:17.609Z,31.20
2022-07-29T10:53:04.908Z,31.00
2022-07-29T10:55:43.673Z,30.80
2022-07-29T10:58:14.661Z,30.70
2022-07-29T11:00:42.925Z,30.50
2022-07-29T11:03:49.789Z,30.60
2022-07-29T11:06:26.677Z,30.70
2022-07-29T11:09:20.282Z,30.80
2022-07-29T11:11:55.189Z,30.50
2022-07-29T11:15:00.254Z,30.40
2022-07-29T11:17:47.224Z,30.30
2022-07-29T11:20:40.061Z,30.00
2022-07-29T11:23:33.359Z,29.40
2022-07-29T11:26:23.172Z,29.10
2022-07-29T11:28:57.088Z,29.20
2022-07-29T11:31:39.641Z,29.40
2022-07-29T11:34:23.167Z,29.30
2022-07-29T11:37:20.056Z,29.40
2022-07-29T11:40:20.242Z,29.30
2022-07-29T11:42:53.502Z,29.40
2022-07-29T11:45:43.363Z,29.60
2022-07-29T11:48:29.643Z,29.30
2022-07-29T11:51:01.588Z,29.60
2022-07-29T11:53:32.701Z,30.00
2022-07-29T11:56:25.708Z,29.90
2022-07-29T11:59:05.831Z,30.10
2022-07-29T12:01:38.296Z,30.00
2022-07-29T12:04:07.848Z,29.50
2022-07-29T12:06:36.175Z,29.20
2022-07-29T12:09:14.393Z,29.10
2022-07-29T12:11:45.037Z,29.10
2022-07-29T12:14:28.015Z,29.40
2022-07-29T12:16:57.786Z,29.60
2022-07-29T12:19:27.486Z,29.40
2022-07-29T12:21:59.678Z,29.30
2022-07-29T12:24:28.171Z,29.20
2022-07-29T12:26:58.213Z,29.40
2022-07-29T12:29:34.869Z,29.70
2022-07-29T12:32:14.544Z,29.50
2022-07-29T12:34:43.377Z,29.50
2022-07-29T12:37:12.065Z,29.50
2022-07-29T12:39:40.489Z,29.90
2022-07-29T12:42:14.830Z,29.70
2022-07-29T12:44:50.307Z,29.50
2022-07-29T12:47:21.172Z,29.50
2022-07-29T12:49:50.251Z,29.50
2022-07-29T12:52:33.109Z,29.30
2022-07-29T12:55:01.927Z,29.40
2022-07-29T12:57:30.862Z,29.60
2022-07-29T13:00:08.745Z,29.40
2022-07-29T13:02:39.164Z,29.30
2022-07-29T13:05:09.351Z,28.90
2022-07-29T13:07:55.946Z,28.80
2022-07-29T13:10:26.132Z,28.80
2022-07-29T13:13:05.673Z,28.90
2022-07-29T13:15:34.800Z,29.00
2022-07-29T13:18:05.159Z,28.60
2022-07-29T13:20:34.030Z,28.90
2022-07-29T13:23:02.957Z,28.90
2022-07-29T13:25:32.913Z,28.80
2022-07-29T13:28:01.750Z,28.90
2022-07-29T13:30:30.234Z,28.80
2022-07-29T13:32:58.460Z,28.90
2022-07-29T13:35:30.740Z,29.00
2022-07-29T13:37:58.899Z,28.90
2022-07-29T13:40:27.428Z,28.80
2022-07-29T13:42:55.605Z,28.70
2022-07-29T13:45:23.949Z,29.00
2022-07-29T13:47:52.091Z,28.90
2022-07-29T13:50:20.333Z,28.80
2022-07-29T13:52:51.451Z,28.70
2022-07-29T13:55:19.656Z,28.50
2022-07-29T13:57:48.578Z,28.40
2022-07-29T14:00:17.364Z,28.30
2022-07-29T14:02:45.580Z,28.10
2022-07-29T14:05:13.837Z,28.20
2022-07-29T14:07:42.049Z,28.10
2022-07-29T14:10:12.209Z,28.10
2022-07-29T14:12:42.756Z,28.20
2022-07-29T14:15:11.722Z,28.10
2022-07-29T14:17:39.888Z,28.10
2022-07-29T14:20:08.838Z,28.10
2022-07-29T14:22:41.762Z,28.20
2022-07-29T14:25:14.878Z,28.20
2022-07-29T14:27:44.173Z,27.90
2022-07-29T14:30:13.230Z,27.70
2022-07-29T14:32:41.408Z,27.60
2022-07-29T14:35:10.308Z,27.70
2022-07-29T14:37:40.297Z,27.80
2022-07-29T14:40:11.582Z,27.90
2022-07-29T14:42:40.406Z,28.00
2022-07-29T14:45:10.642Z,28.20
2022-07-29T14:47:39.788Z,28.10
2022-07-29T14:50:08.958Z,28.10
2022-07-29T14:52:37.207Z,28.10
2022-07-29T14:55:19.349Z,28.00
2022-07-29T14:57:50.907Z,28.00
2022-07-29T15:00:20.189Z,28.00
2022-07-29T15:03:03.757Z,28.20
2022-07-29T15:05:32.181Z,28.20
2022-07-29T15:08:00.889Z,28.20
2022-07-29T15:10:29.220Z,28.00
2022-07-29T15:12:59.705Z,28.00
2022-07-29T15:15:27.959Z,28.00
2022-07-29T15:17:56.185Z,28.00
2022-07-29T15:20:26.269Z,27.90
2022-07-29T15:22:56.427Z,27.70
2022-07-29T15:25:24.795Z,27.60
2022-07-29T15:27:55.660Z,27.40
2022-07-29T15:30:32.964Z,27.40
2022-07-29T15:33:02.409Z,27.30
2022-07-29T15:35:31.360Z,27.20
2022-07-29T15:37:59.549Z,27.10
2022-07-29T15:40:27.773Z,27.10
2022-07-29T15:42:56.112Z,27.10
2022-07-29T15:45:24.426Z,27.10
2022-07-29T15:47:53.980Z,27.10
2022-07-29T15:50:22.269Z,27.10
2022-07-29T15:52:50.456Z,27.00
2022-07-29T15:55:19.058Z,27.00
2022-07-29T15:57:47.258Z,27.00
2022-07-29T16:00:17.588Z,27.00
2022-07-29T16:02:45.784Z,27.00
2022-07-29T16:05:15.386Z,26.90
2022-07-29T16:07:43.549Z,26.90
2022-07-29T16:10:11.836Z,26.90
2022-07-29T16:12:40.049Z,26.90
2022-07-29T16:15:10.507Z,26.90
2022-07-29T16:17:39.250Z,26.90
2022-07-29T16:20:08.744Z,27.00
2022-07-29T16:22:40.076Z,26.90
2022-07-29T16:25:09.188Z,26.90
2022-07-29T16:27:38.311Z,26.80
2022-07-29T16:30:08.272Z,26.70
2022-07-29T16:32:36.445Z,26.60
2022-07-29T16:35:05.541Z,26.50
2022-07-29T16:37:36.609Z,26.40
2022-07-29T16:40:07.626Z,26.20
2022-07-29T16:42:47.716Z,26.00
2022-07-29T16:45:18.175Z,25.80
2022-07-29T16:47:49.506Z,25.60
2022-07-29T16:50:18.131Z,25.40
2022-07-29T16:52:46.263Z,25.30
2022-07-29T16:55:15.821Z,25.00
2022-07-29T16:57:44.094Z,25.00
2022-07-29T17:00:13.615Z,24.90
2022-07-29T17:02:41.755Z,24.80
2022-07-29T17:05:12.371Z,24.70
2022-07-29T17:07:40.757Z,24.60
2022-07-29T17:10:09.805Z,24.60
2022-07-29T17:12:41.280Z,24.50
2022-07-29T17:15:11.601Z,24.40
2022-07-29T17:17:55.007Z,24.40
2022-07-29T17:20:24.008Z,24.40
2022-07-29T17:22:52.154Z,24.30
2022-07-29T17:25:20.867Z,24.20
2022-07-29T17:27:51.608Z,24.10
2022-07-29T17:30:20.034Z,24.00
2022-07-29T17:32:48.266Z,24.00
2022-07-29T17:35:33.920Z,24.00
2022-07-29T17:38:02.066Z,24.10
2022-07-29T17:40:30.237Z,24.10
2022-07-29T17:42:59.764Z,24.00
2022-07-29T17:45:50.405Z,24.00
2022-07-29T17:48:16.202Z,24.00
2022-07-29T17:50:44.583Z,23.90
2022-07-29T17:53:16.179Z,23.90
2022-07-29T17:55:45.800Z,23.80
2022-07-29T17:58:16.842Z,23.70
2022-07-29T18:00:45.444Z,23.60
2022-07-29T18:03:13.716Z,23.50
2022-07-29T18:05:42.486Z,23.40
2022-07-29T18:08:10.921Z,23.30
2022-07-29T18:10:39.348Z,23.20
2022-07-29T18:13:07.485Z,23.00
2022-07-29T18:15:37.230Z,22.90
2022-07-29T18:18:05.579Z,22.90
2022-07-29T18:20:34.307Z,22.60
2022-07-29T18:23:02.987Z,22.50
2022-07-29T18:25:31.199Z,22.40
2022-07-29T18:28:00.619Z,22.30
2022-07-29T18:30:29.687Z,22.30
2022-07-29T18:33:20.259Z,22.30
2022-07-29T18:35:48.120Z,22.30
2022-07-29T18:38:16.353Z,22.30
2022-07-29T18:40:45.804Z,22.20
2022-07-29T18:43:14.853Z,22.10
2022-07-29T18:45:43.029Z,22.00
2022-07-29T18:48:13.804Z,21.90
2022-07-29T18:50:42.361Z,21.80
2022-07-29T18:53:10.892Z,21.80
2022-07-29T18:55:39.044Z,21.80
2022-07-29T18:58:07.266Z,21.80
2022-07-29T19:00:35.541Z,21.80
2022-07-29T19:03:04.452Z,21.80
2022-07-29T19:05:34.449Z,21.80
2022-07-29T19:08:02.829Z,21.80
2022-07-29T19:10:31.348Z,21.90
2022-07-29T19:12:59.506Z,21.80
2022-07-29T19:15:27.942Z,21.70
2022-07-29T19:18:00.823Z,21.70
2022-07-29T19:20:29.556Z,21.80
2022-07-29T19:22:59.083Z,21.80
2022-07-29T19:25:27.375Z,21.70
2022-07-29T19:27:55.595Z,21.60
2022-07-29T19:30:23.870Z,21.70
2022-07-29T19:32:52.051Z,21.70
2022-07-29T19:35:28.324Z,21.70
2022-07-29T19:37:59.609Z,21.70
2022-07-29T19:40:29.016Z,21.70
2022-07-29T19:42:57.574Z,21.70
2022-07-29T19:45:26.863Z,21.70
2022-07-29T19:48:00.774Z,21.70
2022-07-29T19:50:29.953Z,21.70
2022-07-29T19:52:59.564Z,21.70
2022-07-29T19:55:27.798Z,21.60
2022-07-29T19:57:56.392Z,21.60
2022-07-29T20:00:25.986Z,21.60
2022-07-29T20:02:54.357Z,21.50
2022-07-29T20:05:27.806Z,21.60
2022-07-29T20:07:56.466Z,21.60
2022-07-29T20:10:26.064Z,21.60
2022-07-29T20:12:55.275Z,21.60
2022-07-29T20:15:23.846Z,21.60
2022-07-29T20:17:56.894Z,21.50
2022-07-29T20:20:26.364Z,21.50
2022-07-29T20:22:54.800Z,21.50
2022-07-29T20:25:23.160Z,21.50
2022-07-29T20:27:53.349Z,21.40
2022-07-29T20:30:22.118Z,21.50
2022-07-29T20:32:50.677Z,21.50
2022-07-29T20:35:20.258Z,21.50
2022-07-29T20:37:51.392Z,21.50
2022-07-29T20:40:24.169Z,21.50
2022-07-29T20:42:53.812Z,21.50
2022-07-29T20:45:22.557Z,21.40
2022-07-29T20:47:52.001Z,21.40
2022-07-29T20:50:23.759Z,21.40
2022-07-29T20:52:52.626Z,21.50
2022-07-29T20:55:21.195Z,21.50
2022-07-29T20:57:49.401Z,21.50
2022-07-29T21:00:19.281Z,21.50
2022-07-29T21:02:47.612Z,21.40
2022-07-29T21:05:16.220Z,21.40
2022-07-29T21:07:44.504Z,21.40
2022-07-29T21:10:14.301Z,21.30
2022-07-29T21:12:43.042Z,21.30
2022-07-29T21:15:13.712Z,21.30
2022-07-29T21:17:47.708Z,21.30
2022-07-29T21:20:17.136Z,21.30
2022-07-29T21:22:46.998Z,21.30
2022-07-29T21:25:15.150Z,21.30
2022-07-29T21:28:00.487Z,21.40
2022-07-29T21:30:28.693Z,21.40
2022-07-29T21:32:58.725Z,21.30
2022-07-29T21:36:02.048Z,21.30
2022-07-29T21:38:16.420Z,21.20
2022-07-29T21:40:45.526Z,21.20
2022-07-29T21:43:13.858Z,21.20
2022-07-29T21:45:42.238Z,21.20
2022-07-29T21:48:12.012Z,21.20
2022-07-29T21:50:40.288Z,21.20
2022-07-29T21:53:08.484Z,21.20
2022-07-29T21:55:41.416Z,21.10
2022-07-29T21:58:11.125Z,21.10
2022-07-29T22:00:39.324Z,21.10
2022-07-29T22:03:07.427Z,21.00
2022-07-29T22:05:37.208Z,21.10
2022-07-29T22:08:06.019Z,21.00
2022-07-29T22:10:34.878Z,21.00
2022-07-29T22:13:04.159Z,21.00
2022-07-29T22:15:32.710Z,20.90
2022-07-29T22:18:01.077Z,20.90
2022-07-29T22:20:29.634Z,20.80
2022-07-29T22:22:59.257Z,20.70
2022-07-29T22:25:28.666Z,20.70
2022-07-29T22:27:56.909Z,20.70
2022-07-29T22:30:25.182Z,20.60
2022-07-29T22:32:53.550Z,20.70
2022-07-29T22:35:21.783Z,20.80
2022-07-29T22:37:51.175Z,20.80
2022-07-29T22:40:20.915Z,20.70
2022-07-29T22:42:49.220Z,20.70
2022-07-29T22:45:17.482Z,20.60
2022-07-29T22:47:48.472Z,20.60
2022-07-29T22:50:17.417Z,20.60
2022-07-29T22:52:46.047Z,20.60
2022-07-29T22:55:14.903Z,20.50
2022-07-29T22:57:44.716Z,20.50
2022-07-29T23:00:14.277Z,20.50
2022-07-29T23:02:42.529Z,20.50
2022-07-29T23:05:11.739Z,20.50
2022-07-29T23:07:40.223Z,20.40
2022-07-29T23:10:09.658Z,20.40
2022-07-29T23:12:38.021Z,20.50
2022-07-29T23:15:08.395Z,20.40
2022-07-29T23:17:37.043Z,20.30
2022-07-29T23:20:08.912Z,20.40
2022-07-29T23:22:38.562Z,20.40
2022-07-29T23:25:07.839Z,20.40
2022-07-29T23:27:36.059Z,20.40
2022-07-29T23:30:04.925Z,20.40
2022-07-29T23:32:34.618Z,20.40
2022-07-29T23:35:02.861Z,20.40
2022-07-29T23:37:31.112Z,20.40
2022-07-29T23:39:59.329Z,20.50
2022-07-29T23:42:27.639Z,20.40
2022-07-29T23:44:55.871Z,20.40
2022-07-29T23:47:24.077Z,20.40
2022-07-29T23:49:53.685Z,20.30
2022-07-29T23:52:21.948Z,20.30
2022-07-29T23:54:50.297Z,20.30
2022-07-29T23:57:18.717Z,20.30
2022-07-29T23:59:46.961Z,20.20
